sensor_id;sensor_type;location;lat;lon;timestamp;P1;durP1;ratioP1;P2;durP2;ratioP2
58946;SDS011;44724;52.332;4.978;2022-11-23T00:01:36;8.45;;;5.43;;
58946;SDS011;44724;52.332;4.978;2022-11-23T00:04:10;13.48;;;7.43;;
58946;SDS011;44724;52.332;4.978;2022-11-23T00:06:37;13.52;;;6.70;;
58946;SDS011;44724;52.332;4.978;2022-11-23T00:09:03;13.13;;;7.28;;
58946;SDS011;44724;52.332;4.978;2022-11-23T00:11:29;13.48;;;7.15;;
58946;SDS011;44724;52.332;4.978;2022-11-23T00:13:54;16.23;;;8.80;;
58946;SDS011;44724;52.332;4.978;2022-11-23T00:16:21;12.57;;;6.63;;
58946;SDS011;44724;52.332;4.978;2022-11-23T00:18:51;13.25;;;6.60;;
58946;SDS011;44724;52.332;4.978;2022-11-23T00:21:20;17.93;;;9.03;;
58946;SDS011;44724;52.332;4.978;2022-11-23T00:23:47;16.85;;;8.57;;
58946;SDS011;44724;52.332;4.978;2022-11-23T00:26:13;18.58;;;9.10;;
58946;SDS011;44724;52.332;4.978;2022-11-23T00:28:40;15.82;;;9.27;;
58946;SDS011;44724;52.332;4.978;2022-11-23T00:31:07;12.02;;;7.07;;
58946;SDS011;44724;52.332;4.978;2022-11-23T00:33:35;15.05;;;8.00;;
58946;SDS011;44724;52.332;4.978;2022-11-23T00:36:04;15.10;;;8.02;;
58946;SDS011;44724;52.332;4.978;2022-11-23T00:40:59;12.88;;;7.22;;
58946;SDS011;44724;52.332;4.978;2022-11-23T00:43:30;11.43;;;6.75;;
58946;SDS011;44724;52.332;4.978;2022-11-23T00:46:05;17.70;;;9.82;;
58946;SDS011;44724;52.332;4.978;2022-11-23T00:48:45;15.85;;;7.30;;
58946;SDS011;44724;52.332;4.978;2022-11-23T00:51:16;10.95;;;6.53;;
58946;SDS011;44724;52.332;4.978;2022-11-23T00:53:43;16.60;;;6.57;;
58946;SDS011;44724;52.332;4.978;2022-11-23T00:56:09;19.50;;;9.10;;
58946;SDS011;44724;52.332;4.978;2022-11-23T00:58:36;18.67;;;9.98;;
58946;SDS011;44724;52.332;4.978;2022-11-23T01:03:34;18.10;;;8.65;;
58946;SDS011;44724;52.332;4.978;2022-11-23T01:06:08;18.02;;;10.05;;
58946;SDS011;44724;52.332;4.978;2022-11-23T01:08:42;20.85;;;9.73;;
58946;SDS011;44724;52.332;4.978;2022-11-23T01:11:14;19.00;;;9.73;;
58946;SDS011;44724;52.332;4.978;2022-11-23T01:13:39;16.25;;;9.77;;
58946;SDS011;44724;52.332;4.978;2022-11-23T01:16:18;20.50;;;8.82;;
58946;SDS011;44724;52.332;4.978;2022-11-23T01:23:47;19.98;;;10.35;;
58946;SDS011;44724;52.332;4.978;2022-11-23T01:26:12;19.65;;;10.80;;
58946;SDS011;44724;52.332;4.978;2022-11-23T01:28:38;12.23;;;7.00;;
58946;SDS011;44724;52.332;4.978;2022-11-23T01:31:07;22.63;;;9.85;;
58946;SDS011;44724;52.332;4.978;2022-11-23T01:33:32;17.38;;;8.32;;
58946;SDS011;44724;52.332;4.978;2022-11-23T01:35:58;17.05;;;9.20;;
58946;SDS011;44724;52.332;4.978;2022-11-23T01:38:24;13.45;;;7.32;;
58946;SDS011;44724;52.332;4.978;2022-11-23T01:40:50;13.60;;;7.93;;
58946;SDS011;44724;52.332;4.978;2022-11-23T01:43:16;19.30;;;10.27;;
58946;SDS011;44724;52.332;4.978;2022-11-23T01:48:18;20.73;;;11.13;;
58946;SDS011;44724;52.332;4.978;2022-11-23T01:50:45;22.33;;;10.45;;
58946;SDS011;44724;52.332;4.978;2022-11-23T01:53:13;24.08;;;12.18;;
58946;SDS011;44724;52.332;4.978;2022-11-23T01:55:40;21.05;;;11.15;;
58946;SDS011;44724;52.332;4.978;2022-11-23T01:58:08;20.80;;;10.57;;
58946;SDS011;44724;52.332;4.978;2022-11-23T02:00:36;14.02;;;8.27;;
58946;SDS011;44724;52.332;4.978;2022-11-23T02:03:02;15.80;;;8.45;;
58946;SDS011;44724;52.332;4.978;2022-11-23T02:05:31;20.00;;;11.38;;
58946;SDS011;44724;52.332;4.978;2022-11-23T02:08:01;20.52;;;11.02;;
58946;SDS011;44724;52.332;4.978;2022-11-23T02:10:28;25.42;;;11.25;;
58946;SDS011;44724;52.332;4.978;2022-11-23T02:12:55;17.77;;;9.23;;
58946;SDS011;44724;52.332;4.978;2022-11-23T02:15:25;17.05;;;8.90;;
58946;SDS011;44724;52.332;4.978;2022-11-23T02:17:51;17.73;;;7.97;;
58946;SDS011;44724;52.332;4.978;2022-11-23T02:20:17;17.88;;;9.00;;
58946;SDS011;44724;52.332;4.978;2022-11-23T02:22:56;15.98;;;7.55;;
58946;SDS011;44724;52.332;4.978;2022-11-23T02:31:28;16.00;;;9.05;;
58946;SDS011;44724;52.332;4.978;2022-11-23T02:33:53;10.70;;;5.18;;
58946;SDS011;44724;52.332;4.978;2022-11-23T02:36:24;13.93;;;7.55;;
58946;SDS011;44724;52.332;4.978;2022-11-23T02:39:15;19.00;;;9.20;;
58946;SDS011;44724;52.332;4.978;2022-11-23T02:41:45;14.95;;;6.55;;
58946;SDS011;44724;52.332;4.978;2022-11-23T02:47:18;20.17;;;7.72;;
58946;SDS011;44724;52.332;4.978;2022-11-23T02:49:47;12.85;;;6.63;;
58946;SDS011;44724;52.332;4.978;2022-11-23T02:52:14;8.55;;;5.53;;
58946;SDS011;44724;52.332;4.978;2022-11-23T02:54:40;10.65;;;4.88;;
58946;SDS011;44724;52.332;4.978;2022-11-23T02:57:06;14.65;;;7.60;;
58946;SDS011;44724;52.332;4.978;2022-11-23T02:59:32;17.17;;;7.03;;
58946;SDS011;44724;52.332;4.978;2022-11-23T03:01:58;17.98;;;8.63;;
58946;SDS011;44724;52.332;4.978;2022-11-23T03:04:24;11.35;;;5.65;;
58946;SDS011;44724;52.332;4.978;2022-11-23T03:06:50;10.07;;;4.95;;
58946;SDS011;44724;52.332;4.978;2022-11-23T03:09:16;11.60;;;5.43;;
58946;SDS011;44724;52.332;4.978;2022-11-23T03:11:41;13.63;;;7.40;;
58946;SDS011;44724;52.332;4.978;2022-11-23T03:14:07;14.35;;;5.70;;
58946;SDS011;44724;52.332;4.978;2022-11-23T03:16:40;13.63;;;6.80;;
58946;SDS011;44724;52.332;4.978;2022-11-23T03:19:06;5.57;;;3.90;;
58946;SDS011;44724;52.332;4.978;2022-11-23T03:21:31;13.00;;;6.00;;
58946;SDS011;44724;52.332;4.978;2022-11-23T03:24:02;6.85;;;4.32;;
58946;SDS011;44724;52.332;4.978;2022-11-23T03:26:28;10.10;;;5.60;;
58946;SDS011;44724;52.332;4.978;2022-11-23T03:29:02;16.55;;;6.82;;
58946;SDS011;44724;52.332;4.978;2022-11-23T03:31:28;16.75;;;7.93;;
58946;SDS011;44724;52.332;4.978;2022-11-23T03:33:54;13.50;;;6.57;;
58946;SDS011;44724;52.332;4.978;2022-11-23T03:36:19;14.02;;;7.30;;
58946;SDS011;44724;52.332;4.978;2022-11-23T03:38:46;15.90;;;8.30;;
58946;SDS011;44724;52.332;4.978;2022-11-23T03:41:53;12.85;;;6.22;;
58946;SDS011;44724;52.332;4.978;2022-11-23T03:44:20;13.18;;;5.57;;
58946;SDS011;44724;52.332;4.978;2022-11-23T03:46:47;9.82;;;6.18;;
58946;SDS011;44724;52.332;4.978;2022-11-23T03:49:15;13.45;;;7.20;;
58946;SDS011;44724;52.332;4.978;2022-11-23T03:51:40;9.77;;;5.63;;
58946;SDS011;44724;52.332;4.978;2022-11-23T03:54:06;15.45;;;6.53;;
58946;SDS011;44724;52.332;4.978;2022-11-23T03:56:32;14.45;;;7.90;;
58946;SDS011;44724;52.332;4.978;2022-11-23T03:58:57;17.00;;;8.18;;
58946;SDS011;44724;52.332;4.978;2022-11-23T04:01:23;12.60;;;7.53;;
58946;SDS011;44724;52.332;4.978;2022-11-23T04:03:55;9.80;;;6.75;;
58946;SDS011;44724;52.332;4.978;2022-11-23T04:06:43;12.45;;;6.63;;
58946;SDS011;44724;52.332;4.978;2022-11-23T04:09:16;7.00;;;5.18;;
58946;SDS011;44724;52.332;4.978;2022-11-23T04:12:00;13.27;;;6.28;;
58946;SDS011;44724;52.332;4.978;2022-11-23T04:14:25;17.80;;;9.32;;
58946;SDS011;44724;52.332;4.978;2022-11-23T04:16:54;13.77;;;7.50;;
58946;SDS011;44724;52.332;4.978;2022-11-23T04:19:20;11.77;;;7.68;;
58946;SDS011;44724;52.332;4.978;2022-11-23T04:21:46;12.45;;;6.15;;
58946;SDS011;44724;52.332;4.978;2022-11-23T04:24:12;18.58;;;10.70;;
58946;SDS011;44724;52.332;4.978;2022-11-23T04:26:39;14.50;;;9.20;;
58946;SDS011;44724;52.332;4.978;2022-11-23T04:29:06;20.20;;;11.20;;
58946;SDS011;44724;52.332;4.978;2022-11-23T04:31:32;20.05;;;10.15;;
58946;SDS011;44724;52.332;4.978;2022-11-23T04:34:16;15.50;;;8.70;;
58946;SDS011;44724;52.332;4.978;2022-11-23T04:36:41;16.48;;;8.02;;
58946;SDS011;44724;52.332;4.978;2022-11-23T04:39:09;22.33;;;10.32;;
58946;SDS011;44724;52.332;4.978;2022-11-23T04:41:45;15.65;;;6.90;;
58946;SDS011;44724;52.332;4.978;2022-11-23T04:44:11;13.32;;;8.38;;
58946;SDS011;44724;52.332;4.978;2022-11-23T04:46:38;17.75;;;8.98;;
58946;SDS011;44724;52.332;4.978;2022-11-23T04:49:08;11.38;;;6.32;;
58946;SDS011;44724;52.332;4.978;2022-11-23T04:51:34;16.73;;;8.55;;
58946;SDS011;44724;52.332;4.978;2022-11-23T04:54:00;10.02;;;6.32;;
58946;SDS011;44724;52.332;4.978;2022-11-23T04:56:28;9.23;;;5.65;;
58946;SDS011;44724;52.332;4.978;2022-11-23T04:58:53;14.52;;;8.07;;
58946;SDS011;44724;52.332;4.978;2022-11-23T05:01:19;14.05;;;7.32;;
58946;SDS011;44724;52.332;4.978;2022-11-23T05:04:03;15.98;;;8.05;;
58946;SDS011;44724;52.332;4.978;2022-11-23T05:06:29;11.85;;;6.68;;
58946;SDS011;44724;52.332;4.978;2022-11-23T05:08:54;11.13;;;5.20;;
58946;SDS011;44724;52.332;4.978;2022-11-23T05:11:34;15.35;;;7.88;;
58946;SDS011;44724;52.332;4.978;2022-11-23T05:14:00;7.28;;;4.90;;
58946;SDS011;44724;52.332;4.978;2022-11-23T05:16:27;10.68;;;5.75;;
58946;SDS011;44724;52.332;4.978;2022-11-23T05:18:53;10.38;;;6.07;;
58946;SDS011;44724;52.332;4.978;2022-11-23T05:21:24;17.08;;;8.23;;
58946;SDS011;44724;52.332;4.978;2022-11-23T05:23:51;11.95;;;6.95;;
58946;SDS011;44724;52.332;4.978;2022-11-23T05:26:18;13.10;;;6.68;;
58946;SDS011;44724;52.332;4.978;2022-11-23T05:28:43;15.27;;;8.00;;
58946;SDS011;44724;52.332;4.978;2022-11-23T05:31:12;9.30;;;5.78;;
58946;SDS011;44724;52.332;4.978;2022-11-23T05:33:37;15.55;;;7.75;;
58946;SDS011;44724;52.332;4.978;2022-11-23T05:36:05;14.15;;;8.50;;
58946;SDS011;44724;52.332;4.978;2022-11-23T05:38:35;11.80;;;7.75;;
58946;SDS011;44724;52.332;4.978;2022-11-23T05:41:04;13.15;;;7.90;;
58946;SDS011;44724;52.332;4.978;2022-11-23T05:43:31;7.35;;;5.25;;
58946;SDS011;44724;52.332;4.978;2022-11-23T05:45:58;13.80;;;8.02;;
58946;SDS011;44724;52.332;4.978;2022-11-23T05:48:25;11.65;;;6.07;;
58946;SDS011;44724;52.332;4.978;2022-11-23T05:50:55;15.43;;;7.13;;
58946;SDS011;44724;52.332;4.978;2022-11-23T05:53:29;8.43;;;4.20;;
58946;SDS011;44724;52.332;4.978;2022-11-23T05:56:05;12.73;;;6.50;;
58946;SDS011;44724;52.332;4.978;2022-11-23T05:58:36;10.27;;;5.45;;
58946;SDS011;44724;52.332;4.978;2022-11-23T06:01:05;6.78;;;4.78;;
58946;SDS011;44724;52.332;4.978;2022-11-23T06:03:34;11.52;;;5.47;;
58946;SDS011;44724;52.332;4.978;2022-11-23T06:06:00;8.63;;;4.80;;
58946;SDS011;44724;52.332;4.978;2022-11-23T06:08:33;8.13;;;4.22;;
58946;SDS011;44724;52.332;4.978;2022-11-23T06:11:01;14.00;;;7.03;;
58946;SDS011;44724;52.332;4.978;2022-11-23T06:13:28;10.18;;;5.20;;
58946;SDS011;44724;52.332;4.978;2022-11-23T06:15:53;13.45;;;7.28;;
58946;SDS011;44724;52.332;4.978;2022-11-23T06:18:26;17.73;;;8.13;;
58946;SDS011;44724;52.332;4.978;2022-11-23T06:20:52;12.90;;;6.95;;
58946;SDS011;44724;52.332;4.978;2022-11-23T06:23:26;9.88;;;4.60;;
58946;SDS011;44724;52.332;4.978;2022-11-23T06:25:52;8.18;;;5.47;;
58946;SDS011;44724;52.332;4.978;2022-11-23T06:28:23;7.03;;;4.93;;
58946;SDS011;44724;52.332;4.978;2022-11-23T06:30:49;15.68;;;7.05;;
58946;SDS011;44724;52.332;4.978;2022-11-23T06:33:15;10.43;;;5.32;;
58946;SDS011;44724;52.332;4.978;2022-11-23T06:35:54;15.55;;;6.20;;
58946;SDS011;44724;52.332;4.978;2022-11-23T06:38:22;10.95;;;6.47;;
58946;SDS011;44724;52.332;4.978;2022-11-23T06:40:59;15.27;;;5.57;;
58946;SDS011;44724;52.332;4.978;2022-11-23T06:43:27;12.90;;;6.00;;
58946;SDS011;44724;52.332;4.978;2022-11-23T06:45:53;16.80;;;6.70;;
58946;SDS011;44724;52.332;4.978;2022-11-23T06:48:24;13.13;;;5.85;;
58946;SDS011;44724;52.332;4.978;2022-11-23T06:50:50;9.05;;;4.50;;
58946;SDS011;44724;52.332;4.978;2022-11-23T06:53:17;11.75;;;5.97;;
58946;SDS011;44724;52.332;4.978;2022-11-23T06:55:47;12.93;;;5.82;;
58946;SDS011;44724;52.332;4.978;2022-11-23T06:58:15;11.27;;;5.43;;
58946;SDS011;44724;52.332;4.978;2022-11-23T07:00:42;10.85;;;5.72;;
58946;SDS011;44724;52.332;4.978;2022-11-23T07:03:18;10.48;;;6.15;;
58946;SDS011;44724;52.332;4.978;2022-11-23T07:05:48;9.02;;;5.80;;
58946;SDS011;44724;52.332;4.978;2022-11-23T07:08:16;11.20;;;6.13;;
58946;SDS011;44724;52.332;4.978;2022-11-23T07:10:41;12.65;;;6.15;;
58946;SDS011;44724;52.332;4.978;2022-11-23T07:13:10;9.68;;;5.45;;
58946;SDS011;44724;52.332;4.978;2022-11-23T07:15:37;15.93;;;6.70;;
58946;SDS011;44724;52.332;4.978;2022-11-23T07:18:04;15.50;;;6.50;;
58946;SDS011;44724;52.332;4.978;2022-11-23T07:20:30;4.03;;;2.92;;
58946;SDS011;44724;52.332;4.978;2022-11-23T07:22:59;8.52;;;4.93;;
58946;SDS011;44724;52.332;4.978;2022-11-23T07:25:27;12.40;;;5.47;;
58946;SDS011;44724;52.332;4.978;2022-11-23T07:27:54;12.68;;;6.47;;
58946;SDS011;44724;52.332;4.978;2022-11-23T07:30:24;15.48;;;6.05;;
58946;SDS011;44724;52.332;4.978;2022-11-23T07:32:51;11.65;;;4.28;;
58946;SDS011;44724;52.332;4.978;2022-11-23T07:35:17;9.95;;;5.45;;
58946;SDS011;44724;52.332;4.978;2022-11-23T07:37:46;13.00;;;4.78;;
58946;SDS011;44724;52.332;4.978;2022-11-23T07:40:12;8.82;;;3.60;;
58946;SDS011;44724;52.332;4.978;2022-11-23T07:42:38;10.75;;;4.65;;
58946;SDS011;44724;52.332;4.978;2022-11-23T07:45:04;12.93;;;4.60;;
58946;SDS011;44724;52.332;4.978;2022-11-23T07:47:30;10.63;;;4.20;;
58946;SDS011;44724;52.332;4.978;2022-11-23T07:49:55;13.10;;;4.70;;
58946;SDS011;44724;52.332;4.978;2022-11-23T07:52:21;6.22;;;2.40;;
58946;SDS011;44724;52.332;4.978;2022-11-23T07:54:46;9.38;;;3.72;;
58946;SDS011;44724;52.332;4.978;2022-11-23T07:57:12;9.65;;;3.20;;
58946;SDS011;44724;52.332;4.978;2022-11-23T07:59:37;8.38;;;2.97;;
58946;SDS011;44724;52.332;4.978;2022-11-23T08:02:03;8.38;;;2.33;;
58946;SDS011;44724;52.332;4.978;2022-11-23T08:04:29;6.40;;;1.70;;
58946;SDS011;44724;52.332;4.978;2022-11-23T08:06:54;8.70;;;2.03;;
58946;SDS011;44724;52.332;4.978;2022-11-23T08:09:22;6.55;;;1.85;;
58946;SDS011;44724;52.332;4.978;2022-11-23T08:11:48;8.45;;;1.77;;
58946;SDS011;44724;52.332;4.978;2022-11-23T08:14:13;3.42;;;1.20;;
58946;SDS011;44724;52.332;4.978;2022-11-23T08:16:39;3.67;;;1.70;;
58946;SDS011;44724;52.332;4.978;2022-11-23T08:19:04;9.43;;;2.38;;
58946;SDS011;44724;52.332;4.978;2022-11-23T08:21:31;9.48;;;2.38;;
58946;SDS011;44724;52.332;4.978;2022-11-23T08:23:57;8.60;;;1.90;;
58946;SDS011;44724;52.332;4.978;2022-11-23T08:26:23;10.30;;;2.00;;
58946;SDS011;44724;52.332;4.978;2022-11-23T08:28:48;5.28;;;1.25;;
58946;SDS011;44724;52.332;4.978;2022-11-23T08:31:13;6.35;;;1.15;;
58946;SDS011;44724;52.332;4.978;2022-11-23T08:33:39;9.05;;;1.77;;
58946;SDS011;44724;52.332;4.978;2022-11-23T08:36:05;8.45;;;1.80;;
58946;SDS011;44724;52.332;4.978;2022-11-23T08:38:33;11.48;;;1.80;;
58946;SDS011;44724;52.332;4.978;2022-11-23T08:40:59;8.10;;;2.08;;
58946;SDS011;44724;52.332;4.978;2022-11-23T08:43:26;7.60;;;1.92;;
58946;SDS011;44724;52.332;4.978;2022-11-23T08:45:55;6.45;;;1.98;;
58946;SDS011;44724;52.332;4.978;2022-11-23T08:48:24;6.27;;;1.60;;
58946;SDS011;44724;52.332;4.978;2022-11-23T08:50:50;7.70;;;1.77;;
58946;SDS011;44724;52.332;4.978;2022-11-23T08:53:16;5.03;;;1.52;;
58946;SDS011;44724;52.332;4.978;2022-11-23T08:55:42;6.05;;;1.75;;
58946;SDS011;44724;52.332;4.978;2022-11-23T08:58:08;6.30;;;1.77;;
58946;SDS011;44724;52.332;4.978;2022-11-23T09:00:33;8.18;;;1.73;;
58946;SDS011;44724;52.332;4.978;2022-11-23T09:03:00;5.18;;;1.20;;
58946;SDS011;44724;52.332;4.978;2022-11-23T09:05:26;6.18;;;1.70;;
58946;SDS011;44724;52.332;4.978;2022-11-23T09:07:53;6.28;;;1.65;;
58946;SDS011;44724;52.332;4.978;2022-11-23T09:10:25;9.60;;;1.95;;
58946;SDS011;44724;52.332;4.978;2022-11-23T09:12:50;8.52;;;1.88;;
58946;SDS011;44724;52.332;4.978;2022-11-23T09:15:16;5.28;;;1.85;;
58946;SDS011;44724;52.332;4.978;2022-11-23T09:17:42;4.80;;;1.48;;
58946;SDS011;44724;52.332;4.978;2022-11-23T09:20:10;6.95;;;1.85;;
58946;SDS011;44724;52.332;4.978;2022-11-23T09:22:38;8.27;;;1.35;;
58946;SDS011;44724;52.332;4.978;2022-11-23T09:25:04;6.05;;;1.42;;
58946;SDS011;44724;52.332;4.978;2022-11-23T09:27:31;7.95;;;1.67;;
58946;SDS011;44724;52.332;4.978;2022-11-23T09:29:56;10.40;;;1.75;;
58946;SDS011;44724;52.332;4.978;2022-11-23T09:32:22;4.32;;;1.23;;
58946;SDS011;44724;52.332;4.978;2022-11-23T09:34:48;9.32;;;1.17;;
58946;SDS011;44724;52.332;4.978;2022-11-23T09:37:13;6.70;;;1.45;;
58946;SDS011;44724;52.332;4.978;2022-11-23T09:39:39;8.82;;;1.45;;
58946;SDS011;44724;52.332;4.978;2022-11-23T09:47:50;2.60;;;1.30;;
58946;SDS011;44724;52.332;4.978;2022-11-23T09:53:08;13.45;;;1.95;;
58946;SDS011;44724;52.332;4.978;2022-11-23T09:55:44;10.18;;;1.75;;
58946;SDS011;44724;52.332;4.978;2022-11-23T09:58:12;6.55;;;1.80;;
58946;SDS011;44724;52.332;4.978;2022-11-23T10:00:46;7.57;;;1.80;;
58946;SDS011;44724;52.332;4.978;2022-11-23T10:03:15;9.32;;;1.95;;
58946;SDS011;44724;52.332;4.978;2022-11-23T10:05:43;6.18;;;1.55;;
58946;SDS011;44724;52.332;4.978;2022-11-23T10:11:05;8.25;;;2.03;;
58946;SDS011;44724;52.332;4.978;2022-11-23T10:13:44;6.18;;;1.52;;
58946;SDS011;44724;52.332;4.978;2022-11-23T10:16:52;5.60;;;1.00;;
58946;SDS011;44724;52.332;4.978;2022-11-23T10:19:43;2.00;;;1.00;;
58946;SDS011;44724;52.332;4.978;2022-11-23T10:22:21;7.82;;;1.30;;
58946;SDS011;44724;52.332;4.978;2022-11-23T10:24:54;4.80;;;1.38;;
58946;SDS011;44724;52.332;4.978;2022-11-23T10:27:21;3.05;;;1.27;;
58946;SDS011;44724;52.332;4.978;2022-11-23T10:29:48;6.93;;;1.30;;
58946;SDS011;44724;52.332;4.978;2022-11-23T10:32:32;3.45;;;1.27;;
58946;SDS011;44724;52.332;4.978;2022-11-23T10:37:37;6.50;;;1.50;;
58946;SDS011;44724;52.332;4.978;2022-11-23T10:40:13;4.53;;;1.63;;
58946;SDS011;44724;52.332;4.978;2022-11-23T10:42:58;5.10;;;1.30;;
58946;SDS011;44724;52.332;4.978;2022-11-23T10:45:28;5.65;;;1.40;;
58946;SDS011;44724;52.332;4.978;2022-11-23T10:47:57;7.15;;;2.42;;
58946;SDS011;44724;52.332;4.978;2022-11-23T10:52:55;5.85;;;1.42;;
58946;SDS011;44724;52.332;4.978;2022-11-23T10:55:27;1.55;;;0.82;;
58946;SDS011;44724;52.332;4.978;2022-11-23T10:57:55;4.47;;;1.05;;
58946;SDS011;44724;52.332;4.978;2022-11-23T11:00:22;8.90;;;2.05;;
58946;SDS011;44724;52.332;4.978;2022-11-23T11:02:53;5.97;;;1.50;;
58946;SDS011;44724;52.332;4.978;2022-11-23T11:05:32;4.72;;;1.60;;
58946;SDS011;44724;52.332;4.978;2022-11-23T11:08:01;9.05;;;1.58;;
58946;SDS011;44724;52.332;4.978;2022-11-23T11:10:41;5.78;;;1.48;;
58946;SDS011;44724;52.332;4.978;2022-11-23T11:15:57;5.45;;;1.30;;
58946;SDS011;44724;52.332;4.978;2022-11-23T11:18:25;4.75;;;1.63;;
58946;SDS011;44724;52.332;4.978;2022-11-23T11:20:56;5.18;;;1.60;;
58946;SDS011;44724;52.332;4.978;2022-11-23T11:23:27;9.02;;;1.67;;
58946;SDS011;44724;52.332;4.978;2022-11-23T11:26:02;8.35;;;1.88;;
58946;SDS011;44724;52.332;4.978;2022-11-23T11:28:33;2.63;;;1.13;;
58946;SDS011;44724;52.332;4.978;2022-11-23T11:33:45;6.97;;;1.50;;
58946;SDS011;44724;52.332;4.978;2022-11-23T11:36:15;8.13;;;2.70;;
58946;SDS011;44724;52.332;4.978;2022-11-23T11:38:41;5.03;;;2.30;;
58946;SDS011;44724;52.332;4.978;2022-11-23T11:41:13;8.88;;;2.30;;
58946;SDS011;44724;52.332;4.978;2022-11-23T11:43:45;12.65;;;4.03;;
58946;SDS011;44724;52.332;4.978;2022-11-23T11:46:38;4.55;;;1.70;;
58946;SDS011;44724;52.332;4.978;2022-11-23T11:51:45;7.18;;;1.92;;
58946;SDS011;44724;52.332;4.978;2022-11-23T11:56:49;3.40;;;1.65;;
58946;SDS011;44724;52.332;4.978;2022-11-23T11:59:30;3.17;;;1.35;;
58946;SDS011;44724;52.332;4.978;2022-11-23T12:10:05;2.92;;;1.55;;
58946;SDS011;44724;52.332;4.978;2022-11-23T12:12:37;5.28;;;1.73;;
58946;SDS011;44724;52.332;4.978;2022-11-23T12:15:04;1.92;;;1.10;;
58946;SDS011;44724;52.332;4.978;2022-11-23T12:38:53;7.00;;;1.55;;
58946;SDS011;44724;52.332;4.978;2022-11-23T12:41:38;5.38;;;1.00;;
58946;SDS011;44724;52.332;4.978;2022-11-23T12:50:16;3.60;;;1.20;;
58946;SDS011;44724;52.332;4.978;2022-11-23T12:52:57;1.50;;;0.80;;
58946;SDS011;44724;52.332;4.978;2022-11-23T12:58:36;2.58;;;0.93;;
58946;SDS011;44724;52.332;4.978;2022-11-23T13:01:05;9.68;;;1.40;;
58946;SDS011;44724;52.332;4.978;2022-11-23T13:04:00;3.10;;;0.90;;
58946;SDS011;44724;52.332;4.978;2022-11-23T13:23:06;3.28;;;0.80;;
58946;SDS011;44724;52.332;4.978;2022-11-23T13:25:32;2.85;;;0.90;;
58946;SDS011;44724;52.332;4.978;2022-11-23T13:28:25;3.08;;;1.00;;
58946;SDS011;44724;52.332;4.978;2022-11-23T13:33:39;3.88;;;1.00;;
58946;SDS011;44724;52.332;4.978;2022-11-23T13:36:04;1.60;;;0.60;;
58946;SDS011;44724;52.332;4.978;2022-11-23T13:38:37;5.40;;;1.25;;
58946;SDS011;44724;52.332;4.978;2022-11-23T13:44:28;4.47;;;1.27;;
58946;SDS011;44724;52.332;4.978;2022-11-23T13:47:02;3.60;;;0.90;;
58946;SDS011;44724;52.332;4.978;2022-11-23T13:49:33;3.55;;;1.27;;
58946;SDS011;44724;52.332;4.978;2022-11-23T13:54:53;4.18;;;1.05;;
58946;SDS011;44724;52.332;4.978;2022-11-23T13:57:23;2.47;;;0.90;;
58946;SDS011;44724;52.332;4.978;2022-11-23T13:59:48;3.85;;;0.90;;
58946;SDS011;44724;52.332;4.978;2022-11-23T14:04:50;3.92;;;1.27;;
58946;SDS011;44724;52.332;4.978;2022-11-23T14:07:25;1.67;;;1.05;;
58946;SDS011;44724;52.332;4.978;2022-11-23T14:10:04;5.15;;;0.90;;
58946;SDS011;44724;52.332;4.978;2022-11-23T14:12:48;3.88;;;1.10;;
58946;SDS011;44724;52.332;4.978;2022-11-23T14:15:36;3.65;;;1.00;;
58946;SDS011;44724;52.332;4.978;2022-11-23T14:23:19;3.33;;;1.42;;
58946;SDS011;44724;52.332;4.978;2022-11-23T14:31:41;2.47;;;0.98;;
58946;SDS011;44724;52.332;4.978;2022-11-23T14:34:03;3.33;;;1.15;;
58946;SDS011;44724;52.332;4.978;2022-11-23T14:42:17;4.82;;;1.20;;
58946;SDS011;44724;52.332;4.978;2022-11-23T14:44:45;1.45;;;0.90;;
58946;SDS011;44724;52.332;4.978;2022-11-23T14:47:12;1.65;;;0.73;;
58946;SDS011;44724;52.332;4.978;2022-11-23T14:49:50;1.38;;;0.63;;
58946;SDS011;44724;52.332;4.978;2022-11-23T14:52:20;3.55;;;1.30;;
58946;SDS011;44724;52.332;4.978;2022-11-23T14:54:49;5.93;;;1.45;;
58946;SDS011;44724;52.332;4.978;2022-11-23T14:57:16;8.68;;;2.00;;
58946;SDS011;44724;52.332;4.978;2022-11-23T14:59:48;3.40;;;1.30;;
58946;SDS011;44724;52.332;4.978;2022-11-23T15:02:19;2.60;;;0.88;;
58946;SDS011;44724;52.332;4.978;2022-11-23T15:13:27;2.95;;;0.70;;
58946;SDS011;44724;52.332;4.978;2022-11-23T15:15:55;1.00;;;0.70;;
58946;SDS011;44724;52.332;4.978;2022-11-23T15:18:31;4.97;;;1.25;;
58946;SDS011;44724;52.332;4.978;2022-11-23T15:26:30;5.10;;;1.60;;
58946;SDS011;44724;52.332;4.978;2022-11-23T15:28:57;4.43;;;0.80;;
58946;SDS011;44724;52.332;4.978;2022-11-23T15:33:58;3.05;;;1.08;;
58946;SDS011;44724;52.332;4.978;2022-11-23T15:36:35;3.67;;;1.02;;
58946;SDS011;44724;52.332;4.978;2022-11-23T15:39:02;4.07;;;1.23;;
58946;SDS011;44724;52.332;4.978;2022-11-23T15:41:32;1.30;;;0.55;;
58946;SDS011;44724;52.332;4.978;2022-11-23T15:44:00;1.23;;;0.80;;
58946;SDS011;44724;52.332;4.978;2022-11-23T15:46:26;3.35;;;1.42;;
58946;SDS011;44724;52.332;4.978;2022-11-23T15:48:58;6.47;;;1.35;;
58946;SDS011;44724;52.332;4.978;2022-11-23T15:51:27;1.65;;;0.70;;
58946;SDS011;44724;52.332;4.978;2022-11-23T15:53:53;3.55;;;1.08;;
58946;SDS011;44724;52.332;4.978;2022-11-23T15:58:47;4.53;;;1.48;;
58946;SDS011;44724;52.332;4.978;2022-11-23T16:01:14;2.75;;;1.17;;
58946;SDS011;44724;52.332;4.978;2022-11-23T16:03:46;2.42;;;1.42;;
58946;SDS011;44724;52.332;4.978;2022-11-23T16:06:49;5.93;;;2.20;;
58946;SDS011;44724;52.332;4.978;2022-11-23T16:12:04;3.00;;;1.75;;
58946;SDS011;44724;52.332;4.978;2022-11-23T16:14:45;0.57;;;0.57;;
58946;SDS011;44724;52.332;4.978;2022-11-23T16:17:13;3.90;;;1.40;;
58946;SDS011;44724;52.332;4.978;2022-11-23T16:19:52;2.90;;;1.17;;
58946;SDS011;44724;52.332;4.978;2022-11-23T16:25:34;3.30;;;1.88;;
58946;SDS011;44724;52.332;4.978;2022-11-23T16:30:36;4.22;;;1.60;;
58946;SDS011;44724;52.332;4.978;2022-11-23T16:33:03;1.60;;;1.27;;
58946;SDS011;44724;52.332;4.978;2022-11-23T16:35:29;2.92;;;1.38;;
58946;SDS011;44724;52.332;4.978;2022-11-23T16:37:55;2.83;;;1.15;;
58946;SDS011;44724;52.332;4.978;2022-11-23T16:40:20;1.13;;;0.88;;
58946;SDS011;44724;52.332;4.978;2022-11-23T16:42:49;1.27;;;1.17;;
58946;SDS011;44724;52.332;4.978;2022-11-23T16:45:15;3.50;;;1.80;;
58946;SDS011;44724;52.332;4.978;2022-11-23T16:47:55;2.85;;;2.05;;
58946;SDS011;44724;52.332;4.978;2022-11-23T16:50:32;3.42;;;1.98;;
58946;SDS011;44724;52.332;4.978;2022-11-23T16:53:08;1.45;;;1.35;;
58946;SDS011;44724;52.332;4.978;2022-11-23T16:55:38;4.53;;;2.65;;
58946;SDS011;44724;52.332;4.978;2022-11-23T16:58:04;4.25;;;2.85;;
58946;SDS011;44724;52.332;4.978;2022-11-23T17:00:29;4.03;;;2.22;;
58946;SDS011;44724;52.332;4.978;2022-11-23T17:02:56;4.93;;;3.88;;
58946;SDS011;44724;52.332;4.978;2022-11-23T17:05:24;4.22;;;2.67;;
58946;SDS011;44724;52.332;4.978;2022-11-23T17:07:50;3.92;;;3.33;;
58946;SDS011;44724;52.332;4.978;2022-11-23T17:10:15;6.90;;;3.53;;
58946;SDS011;44724;52.332;4.978;2022-11-23T17:12:51;5.32;;;3.70;;
58946;SDS011;44724;52.332;4.978;2022-11-23T17:15:20;6.20;;;3.53;;
58946;SDS011;44724;52.332;4.978;2022-11-23T17:17:47;5.57;;;3.17;;
58946;SDS011;44724;52.332;4.978;2022-11-23T17:20:14;5.00;;;3.63;;
58946;SDS011;44724;52.332;4.978;2022-11-23T17:22:40;3.90;;;2.83;;
58946;SDS011;44724;52.332;4.978;2022-11-23T17:25:06;8.52;;;5.00;;
58946;SDS011;44724;52.332;4.978;2022-11-23T17:27:33;3.83;;;2.45;;
58946;SDS011;44724;52.332;4.978;2022-11-23T17:30:00;6.80;;;4.72;;
58946;SDS011;44724;52.332;4.978;2022-11-23T17:32:28;9.65;;;5.20;;
58946;SDS011;44724;52.332;4.978;2022-11-23T17:34:53;4.30;;;2.85;;